createdAt,value
2018-03-03T00:00:39.719Z,69.70
2018-03-03T00:03:08.844Z,70.20
2018-03-03T00:05:38.775Z,69.60
2018-03-03T00:08:07.600Z,69.50
2018-03-03T00:10:36.746Z,69.90
2018-03-03T00:13:06.371Z,68.90
2018-03-03T00:15:35.474Z,68.80
2018-03-03T00:18:04.391Z,68.70
2018-03-03T00:20:33.292Z,70.50
2018-03-03T00:23:02.905Z,72.40
2018-03-03T00:25:32.082Z,72.90
2018-03-03T00:28:01.088Z,74.50
2018-03-03T00:30:30.426Z,75.20
2018-03-03T00:32:59.330Z,74.90
2018-03-03T00:35:28.255Z,74.80
2018-03-03T00:37:57.230Z,75.40
2018-03-03T00:40:26.561Z,75.00
2018-03-03T00:42:55.433Z,75.10
2018-03-03T00:45:24.241Z,75.00
2018-03-03T00:47:53.125Z,75.70
2018-03-03T00:50:21.972Z,75.10
2018-03-03T00:52:51.586Z,75.80
2018-03-03T00:55:21.410Z,75.90
2018-03-03T00:57:51.036Z,75.20
2018-03-03T01:00:19.910Z,74.40
2018-03-03T01:02:48.856Z,72.90
2018-03-03T01:05:17.981Z,71.90
2018-03-03T01:07:46.923Z,70.40
2018-03-03T01:10:16.622Z,70.10
2018-03-03T01:12:45.497Z,70.10
2018-03-03T01:15:14.396Z,69.20
2018-03-03T01:17:43.276Z,70.00
2018-03-03T01:20:12.143Z,70.50
2018-03-03T01:22:41.793Z,70.10
2018-03-03T01:25:10.588Z,70.10
2018-03-03T01:27:39.455Z,72.30
2018-03-03T01:30:08.474Z,73.40
2018-03-03T01:32:38.080Z,74.90
2018-03-03T01:35:06.907Z,74.90
2018-03-03T01:37:35.758Z,76.10
2018-03-03T01:40:04.877Z,73.90
2018-03-03T01:42:34.630Z,74.40
2018-03-03T01:45:03.529Z,74.20
2018-03-03T01:47:32.409Z,69.40
2018-03-03T01:50:01.299Z,69.90
2018-03-03T01:52:30.189Z,68.70
2018-03-03T01:55:00.082Z,66.50
2018-03-03T01:57:29.087Z,66.50
2018-03-03T01:59:57.920Z,59.00
2018-03-03T02:02:27.283Z,56.90
2018-03-03T02:04:56.100Z,57.40
2018-03-03T02:07:24.957Z,53.30
2018-03-03T02:09:54.040Z,52.80
2018-03-03T02:12:22.993Z,51.60
2018-03-03T02:14:51.848Z,51.20
2018-03-03T02:17:21.142Z,50.80
2018-03-03T02:19:50.033Z,50.70
2018-03-03T02:22:19.328Z,50.60
2018-03-03T02:24:48.149Z,50.30
2018-03-03T02:27:17.143Z,50.40
2018-03-03T02:29:45.961Z,50.70
2018-03-03T02:32:15.310Z,50.80
2018-03-03T02:34:44.129Z,50.50
2018-03-03T02:37:13.189Z,50.60
2018-03-03T02:39:42.815Z,50.60
2018-03-03T02:42:12.100Z,50.70
2018-03-03T02:44:40.947Z,50.40
2018-03-03T02:47:10.551Z,50.00
2018-03-03T02:49:40.180Z,49.70
2018-03-03T02:52:09.033Z,49.70
2018-03-03T02:54:37.985Z,50.10
2018-03-03T02:57:07.067Z,49.70
2018-03-03T02:59:36.064Z,49.40
2018-03-03T03:02:04.902Z,49.00
2018-03-03T03:04:34.019Z,49.10
2018-03-03T03:07:02.852Z,49.50
2018-03-03T03:09:31.937Z,50.20
2018-03-03T03:12:00.913Z,49.50
2018-03-03T03:14:30.489Z,49.70
2018-03-03T03:16:59.322Z,49.70
2018-03-03T03:19:29.109Z,49.30
2018-03-03T03:21:58.721Z,49.30
2018-03-03T03:24:27.954Z,49.30
2018-03-03T03:26:57.043Z,48.90
2018-03-03T03:29:26.661Z,49.10
2018-03-03T03:31:55.474Z,49.10
2018-03-03T03:34:24.566Z,48.50
2018-03-03T03:36:53.320Z,48.90
2018-03-03T03:39:23.390Z,48.80
2018-03-03T03:41:52.180Z,48.90
2018-03-03T03:44:21.740Z,48.90
2018-03-03T03:46:51.268Z,48.60
2018-03-03T03:49:20.239Z,48.60
2018-03-03T03:51:49.849Z,48.80
2018-03-03T03:54:19.400Z,48.50
2018-03-03T03:56:49.198Z,48.40
2018-03-03T03:59:18.040Z,48.40
2018-03-03T04:01:46.951Z,48.30
2018-03-03T04:04:16.021Z,48.10
2018-03-03T04:06:44.899Z,48.30
2018-03-03T04:09:13.688Z,48.90
2018-03-03T04:11:42.707Z,49.00
2018-03-03T04:14:11.801Z,48.60
2018-03-03T04:16:40.863Z,48.40
2018-03-03T04:19:10.866Z,47.90
2018-03-03T04:21:39.786Z,47.80
2018-03-03T04:24:09.464Z,48.10
2018-03-03T04:26:39.288Z,48.30
2018-03-03T04:29:08.443Z,48.30
2018-03-03T04:31:37.697Z,48.70
2018-03-03T04:34:07.333Z,48.80
2018-03-03T04:36:36.225Z,48.80
2018-03-03T04:39:06.233Z,48.70
2018-03-03T04:41:36.159Z,49.00
2018-03-03T04:44:05.778Z,48.60
2018-03-03T04:46:34.832Z,48.60
2018-03-03T04:49:03.791Z,48.40
2018-03-03T04:51:33.637Z,48.00
2018-03-03T04:54:03.436Z,48.20
2018-03-03T04:56:32.398Z,48.00
2018-03-03T04:59:22.418Z,47.90
2018-03-03T05:02:03.989Z,48.80
2018-03-03T05:04:39.327Z,47.70
2018-03-03T05:07:10.013Z,47.70
2018-03-03T05:09:39.817Z,47.10
2018-03-03T05:12:09.513Z,47.70
2018-03-03T05:14:54.716Z,47.20
2018-03-03T05:17:42.116Z,46.70
2018-03-03T05:20:16.597Z,46.60
2018-03-03T05:22:45.552Z,46.60
2018-03-03T05:25:20.243Z,46.20
2018-03-03T05:27:55.113Z,46.50
2018-03-03T05:30:29.458Z,47.30
2018-03-03T05:33:03.924Z,47.30
2018-03-03T05:35:49.308Z,47.10
2018-03-03T05:38:35.188Z,47.10
2018-03-03T05:41:09.818Z,46.90
2018-03-03T05:43:44.304Z,47.70
2018-03-03T05:46:28.758Z,46.90
2018-03-03T05:49:03.276Z,46.80
2018-03-03T05:51:49.804Z,46.10
2018-03-03T05:54:24.337Z,46.40
2018-03-03T05:57:09.901Z,46.00
2018-03-03T05:59:59.398Z,47.00
2018-03-03T06:02:48.165Z,46.40
2018-03-03T06:05:23.244Z,46.60
2018-03-03T06:07:57.835Z,46.60
2018-03-03T06:10:44.031Z,45.90
2018-03-03T06:13:12.904Z,45.80
2018-03-03T06:15:43.163Z,44.20
2018-03-03T06:18:13.019Z,45.30
2018-03-03T06:20:42.671Z,44.90
2018-03-03T06:23:12.675Z,45.40
2018-03-03T06:25:42.573Z,46.10
2018-03-03T06:28:11.494Z,46.10
2018-03-03T06:30:41.238Z,45.00
2018-03-03T06:33:10.097Z,45.00
2018-03-03T06:35:38.968Z,45.00
2018-03-03T06:38:07.848Z,45.40
2018-03-03T06:40:37.056Z,45.20
2018-03-03T06:43:06.672Z,45.50
2018-03-03T06:45:35.539Z,45.30
2018-03-03T06:48:04.438Z,44.50
2018-03-03T06:50:33.367Z,43.80
2018-03-03T06:53:02.272Z,44.10
2018-03-03T06:55:31.208Z,44.10
2018-03-03T06:58:00.139Z,43.90
2018-03-03T07:00:29.045Z,44.60
2018-03-03T07:02:57.968Z,44.40
2018-03-03T07:05:27.634Z,43.50
2018-03-03T07:07:56.892Z,43.40
2018-03-03T07:10:25.792Z,42.70
2018-03-03T07:12:55.545Z,43.20
2018-03-03T07:15:27.171Z,43.20
2018-03-03T07:17:56.089Z,43.60
2018-03-03T07:20:25.233Z,42.30
2018-03-03T07:22:54.275Z,41.90
2018-03-03T07:25:23.119Z,41.70
2018-03-03T07:27:52.353Z,41.60
2018-03-03T07:30:21.232Z,42.40
2018-03-03T07:32:50.945Z,41.00
2018-03-03T07:35:19.829Z,41.00
2018-03-03T07:37:48.971Z,41.10
2018-03-03T07:40:18.646Z,40.70
2018-03-03T07:42:47.525Z,40.70
2018-03-03T07:45:17.579Z,40.90
2018-03-03T07:47:46.757Z,41.60
2018-03-03T07:50:15.711Z,40.80
2018-03-03T07:52:45.066Z,39.60
2018-03-03T07:55:14.114Z,38.60
2018-03-03T07:57:43.037Z,35.90
2018-03-03T08:00:11.909Z,36.30
2018-03-03T08:02:41.069Z,36.00
2018-03-03T08:05:10.240Z,37.20
2018-03-03T08:07:39.242Z,37.20
2018-03-03T08:10:08.201Z,38.70
2018-03-03T08:12:36.985Z,39.70
2018-03-03T08:15:05.935Z,40.30
2018-03-03T08:17:34.772Z,40.60
2018-03-03T08:20:03.705Z,40.70
2018-03-03T08:22:33.390Z,40.50
2018-03-03T08:25:02.330Z,40.40
2018-03-03T08:27:32.441Z,41.20
2018-03-03T08:30:01.336Z,41.10
2018-03-03T08:32:31.074Z,41.80
2018-03-03T08:35:00.859Z,41.60
2018-03-03T08:37:30.129Z,41.60
2018-03-03T08:39:58.966Z,40.80
2018-03-03T08:42:27.869Z,41.40
2018-03-03T08:44:56.777Z,42.10
2018-03-03T08:47:25.753Z,41.30
2018-03-03T08:49:54.792Z,41.40
2018-03-03T08:52:23.907Z,41.60
2018-03-03T08:54:53.817Z,41.60
2018-03-03T08:57:22.936Z,41.60
2018-03-03T08:59:51.850Z,41.10
2018-03-03T09:02:20.761Z,41.40
2018-03-03T09:04:49.620Z,41.50
2018-03-03T09:07:19.585Z,42.40
2018-03-03T09:09:48.609Z,42.30
2018-03-03T09:12:18.380Z,42.20
2018-03-03T09:14:47.680Z,42.10
2018-03-03T09:17:16.496Z,42.50
2018-03-03T09:19:45.517Z,42.70
2018-03-03T09:22:15.199Z,42.90
2018-03-03T09:24:44.059Z,42.90
2018-03-03T09:27:13.788Z,43.70
2018-03-03T09:29:43.447Z,43.60
2018-03-03T09:32:13.083Z,44.30
2018-03-03T09:34:41.994Z,44.30
2018-03-03T09:37:10.886Z,44.50
2018-03-03T09:39:39.772Z,43.90
2018-03-03T09:42:08.890Z,44.50
2018-03-03T09:44:37.741Z,43.90
2018-03-03T09:47:06.637Z,43.70
2018-03-03T09:49:37.074Z,43.80
2018-03-03T09:52:06.220Z,43.60
2018-03-03T09:54:35.981Z,40.90
2018-03-03T09:57:04.952Z,40.90
2018-03-03T09:59:33.872Z,41.30
2018-03-03T10:02:06.294Z,40.60
2018-03-03T10:04:32.445Z,40.50
2018-03-03T10:07:01.518Z,40.40
2018-03-03T10:09:31.257Z,40.90
2018-03-03T10:12:00.470Z,40.90
2018-03-03T10:14:29.435Z,40.80
2018-03-03T10:16:58.533Z,41.20
2018-03-03T10:19:27.432Z,40.70
2018-03-03T10:21:56.487Z,41.30
2018-03-03T10:24:26.206Z,37.90
2018-03-03T10:26:55.134Z,37.80
2018-03-03T10:29:24.119Z,38.00
2018-03-03T10:31:53.088Z,37.60
2018-03-03T10:34:23.004Z,36.90
2018-03-03T10:36:51.930Z,36.90
2018-03-03T10:39:21.736Z,37.50
2018-03-03T10:41:50.690Z,37.40
2018-03-03T10:44:20.315Z,37.40
2018-03-03T10:46:50.145Z,37.40
2018-03-03T10:49:19.115Z,37.30
2018-03-03T10:51:48.202Z,37.20
2018-03-03T10:54:17.055Z,36.10
2018-03-03T10:56:46.083Z,36.80
2018-03-03T10:59:15.927Z,37.40
2018-03-03T11:01:45.997Z,37.40
2018-03-03T11:04:16.723Z,37.50
2018-03-03T11:06:46.951Z,36.70
2018-03-03T11:09:18.206Z,37.60
2018-03-03T11:11:49.292Z,37.60
2018-03-03T11:14:20.606Z,37.60
2018-03-03T11:16:52.126Z,38.60
2018-03-03T11:19:23.001Z,37.50
2018-03-03T11:21:53.824Z,37.40
2018-03-03T11:24:24.752Z,37.90
2018-03-03T11:26:53.981Z,37.90
2018-03-03T11:29:23.105Z,37.20
2018-03-03T11:31:51.979Z,37.60
2018-03-03T11:34:22.080Z,39.40
2018-03-03T11:36:51.070Z,39.40
2018-03-03T11:39:20.773Z,39.60
2018-03-03T11:41:49.601Z,39.60
2018-03-03T11:44:18.459Z,38.80
2018-03-03T11:46:48.134Z,39.70
2018-03-03T11:49:17.784Z,40.40
2018-03-03T11:51:46.701Z,40.20
2018-03-03T11:54:16.601Z,39.40
2018-03-03T11:56:46.290Z,39.70
2018-03-03T11:59:15.285Z,39.70
2018-03-03T12:01:45.171Z,41.70
2018-03-03T12:04:14.083Z,41.70
2018-03-03T12:06:43.974Z,41.90
2018-03-03T12:09:14.235Z,41.20
2018-03-03T12:11:43.131Z,41.20
2018-03-03T12:14:13.109Z,40.70
2018-03-03T12:16:42.042Z,38.20
2018-03-03T12:19:10.848Z,38.90
2018-03-03T12:21:40.711Z,38.60
2018-03-03T12:24:09.560Z,38.80
2018-03-03T12:26:39.265Z,42.10
2018-03-03T12:29:08.113Z,42.10
2018-03-03T12:31:37.341Z,40.80
2018-03-03T12:34:06.196Z,39.20
2018-03-03T12:36:35.194Z,40.00
2018-03-03T12:39:04.314Z,40.10
2018-03-03T12:41:33.249Z,40.60
2018-03-03T12:44:02.999Z,39.70
2018-03-03T12:46:32.644Z,40.30
2018-03-03T12:49:01.532Z,40.30
2018-03-03T12:51:30.466Z,39.60
2018-03-03T12:54:00.159Z,38.40
2018-03-03T12:56:30.021Z,39.30
2018-03-03T12:58:58.929Z,39.30
2018-03-03T13:01:27.923Z,39.70
2018-03-03T13:03:56.774Z,39.80
2018-03-03T13:06:26.135Z,39.70
2018-03-03T13:08:55.260Z,39.90
2018-03-03T13:11:24.132Z,40.10
2018-03-03T13:13:53.892Z,40.20
2018-03-03T13:16:22.914Z,40.20
2018-03-03T13:18:51.827Z,43.10
2018-03-03T13:21:20.993Z,55.20
2018-03-03T13:23:49.998Z,59.70
2018-03-03T13:26:20.013Z,64.20
2018-03-03T13:28:48.940Z,70.70
2018-03-03T13:31:18.605Z,74.50
2018-03-03T13:33:47.693Z,74.40
2018-03-03T13:36:16.916Z,76.20
2018-03-03T13:38:45.790Z,76.50
2018-03-03T13:41:15.726Z,76.40
2018-03-03T13:43:44.743Z,76.30
2018-03-03T13:46:13.803Z,77.30
2018-03-03T13:48:43.793Z,78.00
2018-03-03T13:51:12.678Z,78.00
2018-03-03T13:53:41.802Z,78.70
2018-03-03T13:56:10.748Z,79.80
2018-03-03T13:58:40.664Z,80.90
2018-03-03T14:01:09.541Z,80.90
2018-03-03T14:03:38.449Z,80.70
2018-03-03T14:06:08.551Z,83.20
2018-03-03T14:08:37.665Z,83.20
2018-03-03T14:11:07.338Z,85.30
2018-03-03T14:13:36.716Z,85.30
2018-03-03T14:16:05.588Z,89.80
2018-03-03T14:18:34.649Z,91.50
2018-03-03T14:21:03.584Z,91.90
2018-03-03T14:23:33.344Z,92.50
2018-03-03T14:26:03.035Z,92.80
2018-03-03T14:28:32.896Z,92.70
2018-03-03T14:31:01.813Z,92.70
2018-03-03T14:33:31.568Z,93.70
2018-03-03T14:36:00.513Z,93.70
2018-03-03T14:38:29.841Z,94.30
2018-03-03T14:40:58.690Z,94.70
2018-03-03T14:43:27.893Z,94.60
2018-03-03T14:45:56.944Z,94.10
2018-03-03T14:48:26.819Z,95.50
2018-03-03T14:50:55.979Z,95.50
2018-03-03T14:53:24.916Z,95.30
2018-03-03T14:55:54.145Z,96.00
2018-03-03T14:58:23.816Z,96.20
2018-03-03T15:00:53.449Z,96.20
2018-03-03T15:03:22.427Z,96.10
2018-03-03T15:05:52.108Z,97.00
2018-03-03T15:08:21.294Z,97.00
2018-03-03T15:10:50.188Z,96.80
2018-03-03T15:13:20.687Z,96.80
2018-03-03T15:15:49.791Z,96.70
2018-03-03T15:18:19.816Z,95.90
2018-03-03T15:20:48.808Z,95.80
2018-03-03T15:23:17.761Z,94.90
2018-03-03T15:25:47.875Z,94.60
2018-03-03T15:28:17.033Z,94.60
2018-03-03T15:30:45.920Z,95.70
2018-03-03T15:33:14.846Z,95.50
2018-03-03T15:35:43.744Z,95.70
2018-03-03T15:38:12.631Z,94.80
2018-03-03T15:40:41.560Z,94.90
2018-03-03T15:43:11.380Z,95.10
2018-03-03T15:45:41.186Z,95.60
2018-03-03T15:48:10.920Z,95.40
2018-03-03T15:50:39.882Z,95.30
2018-03-03T15:53:08.892Z,95.60
2018-03-03T15:55:37.793Z,95.70
2018-03-03T15:58:07.519Z,95.60
2018-03-03T16:00:36.505Z,95.70
2018-03-03T16:03:05.425Z,95.70
2018-03-03T16:05:34.247Z,94.30
2018-03-03T16:08:04.180Z,93.90
2018-03-03T16:10:33.166Z,93.80
2018-03-03T16:13:02.443Z,94.30
2018-03-03T16:15:31.358Z,94.70
2018-03-03T16:18:00.613Z,95.40
2018-03-03T16:20:29.855Z,95.80
2018-03-03T16:22:58.796Z,95.80
2018-03-03T16:25:27.686Z,96.10
2018-03-03T16:27:56.568Z,95.90
2018-03-03T16:30:25.629Z,95.40
2018-03-03T16:32:54.462Z,95.60
2018-03-03T16:35:23.712Z,94.80
2018-03-03T16:37:52.922Z,94.90
2018-03-03T16:40:22.618Z,94.50
2018-03-03T16:42:51.698Z,94.50
2018-03-03T16:45:20.529Z,94.30
2018-03-03T16:47:49.585Z,94.50
2018-03-03T16:50:19.266Z,95.50
2018-03-03T16:52:48.077Z,95.50
2018-03-03T16:55:16.928Z,95.00
2018-03-03T16:57:46.045Z,95.40
2018-03-03T17:00:14.968Z,95.40
2018-03-03T17:02:44.609Z,95.00
2018-03-03T17:05:13.497Z,95.00
2018-03-03T17:07:42.556Z,95.00
2018-03-03T17:10:11.472Z,95.30
2018-03-03T17:12:40.552Z,95.50
2018-03-03T17:15:09.784Z,95.60
2018-03-03T17:17:38.940Z,96.10
2018-03-03T17:20:09.199Z,96.10
2018-03-03T17:22:38.282Z,95.90
2018-03-03T17:25:08.428Z,96.20
2018-03-03T17:27:38.616Z,96.30
2018-03-03T17:30:07.858Z,96.20
2018-03-03T17:32:37.051Z,96.30
2018-03-03T17:35:07.155Z,95.20
2018-03-03T17:37:36.395Z,95.20
2018-03-03T17:40:05.689Z,94.90
2018-03-03T17:42:34.945Z,94.40
2018-03-03T17:45:04.933Z,93.20
2018-03-03T17:47:34.285Z,93.20
2018-03-03T17:50:04.289Z,93.10
2018-03-03T17:52:33.315Z,93.10
2018-03-03T17:55:03.085Z,93.00
2018-03-03T17:57:31.989Z,93.00
2018-03-03T18:00:01.178Z,92.90
2018-03-03T18:02:30.140Z,93.00
2018-03-03T18:04:59.540Z,93.10
2018-03-03T18:07:28.508Z,93.10
2018-03-03T18:09:57.624Z,93.50
2018-03-03T18:12:27.081Z,93.10
2018-03-03T18:14:56.061Z,92.80
2018-03-03T18:17:26.006Z,92.30
2018-03-03T18:19:55.297Z,92.30
2018-03-03T18:22:24.351Z,91.20
2018-03-03T18:24:53.771Z,92.10
2018-03-03T18:27:23.923Z,92.50
2018-03-03T18:29:53.170Z,92.50
2018-03-03T18:32:23.495Z,93.10
2018-03-03T18:34:52.830Z,93.10
2018-03-03T18:37:21.967Z,92.40
2018-03-03T18:39:51.266Z,92.70
2018-03-03T18:42:20.383Z,92.80
2018-03-03T18:44:49.539Z,93.50
2018-03-03T18:47:19.520Z,93.20
2018-03-03T18:49:49.044Z,93.20
2018-03-03T18:52:18.185Z,93.10
2018-03-03T18:54:48.247Z,92.70
2018-03-03T18:57:19.127Z,92.70
2018-03-03T18:59:48.584Z,92.80
2018-03-03T19:02:17.925Z,93.30
2018-03-03T19:04:47.236Z,93.50
2018-03-03T19:07:16.416Z,93.00
2018-03-03T19:09:45.938Z,93.10
2018-03-03T19:12:15.195Z,93.10
2018-03-03T19:14:44.463Z,93.90
2018-03-03T19:17:13.990Z,93.80
2018-03-03T19:19:44.080Z,93.70
2018-03-03T19:22:13.243Z,93.70
2018-03-03T19:24:42.703Z,93.80
2018-03-03T19:27:12.278Z,93.70
2018-03-03T19:29:41.887Z,94.40
2018-03-03T19:32:11.306Z,94.50
2018-03-03T19:34:41.361Z,94.10
2018-03-03T19:37:10.920Z,94.10
2018-03-03T19:39:40.137Z,94.10
2018-03-03T19:42:10.123Z,94.30
2018-03-03T19:44:39.479Z,94.30
2018-03-03T19:47:09.037Z,94.60
2018-03-03T19:49:38.534Z,95.10
2018-03-03T19:52:07.934Z,95.10
2018-03-03T19:54:38.980Z,95.40
2018-03-03T19:57:08.412Z,95.40
2018-03-03T19:59:39.103Z,94.10
2018-03-03T20:02:08.636Z,94.00
2018-03-03T20:04:38.097Z,93.30
2018-03-03T20:07:07.311Z,93.00
2018-03-03T20:09:36.670Z,93.50
2018-03-03T20:12:06.112Z,94.00
2018-03-03T20:14:35.665Z,94.40
2018-03-03T20:17:05.742Z,94.60
2018-03-03T20:19:35.028Z,94.60
2018-03-03T20:22:04.244Z,94.60
2018-03-03T20:24:33.640Z,94.80
2018-03-03T20:27:02.831Z,94.70
2018-03-03T20:29:32.046Z,94.70
2018-03-03T20:32:01.318Z,94.80
2018-03-03T20:34:30.775Z,94.80
2018-03-03T20:37:00.135Z,94.80
2018-03-03T20:39:29.514Z,93.10
2018-03-03T20:41:59.675Z,92.90
2018-03-03T20:44:32.099Z,93.80
2018-03-03T20:47:04.639Z,92.80
2018-03-03T20:49:34.833Z,93.10
2018-03-03T20:52:05.835Z,94.40
2018-03-03T20:54:35.367Z,94.40
2018-03-03T20:57:05.776Z,94.40
2018-03-03T20:59:35.044Z,94.30
2018-03-03T21:02:04.424Z,94.40
2018-03-03T21:04:33.603Z,94.10
2018-03-03T21:07:04.850Z,94.20
2018-03-03T21:09:34.238Z,94.20
2018-03-03T21:12:03.753Z,93.90
2018-03-03T21:14:33.007Z,93.10
2018-03-03T21:17:02.985Z,93.20
2018-03-03T21:19:32.457Z,92.90
2018-03-03T21:22:01.804Z,94.20
2018-03-03T21:24:31.097Z,93.40
2018-03-03T21:27:00.383Z,93.50
2018-03-03T21:29:29.665Z,93.70
2018-03-03T21:31:59.368Z,93.40
2018-03-03T21:34:28.701Z,92.60
2018-03-03T21:36:58.087Z,92.40
2018-03-03T21:39:45.267Z,92.60
2018-03-03T21:42:18.284Z,92.50
2018-03-03T21:44:47.641Z,92.50
2018-03-03T21:47:17.177Z,92.50
2018-03-03T21:49:46.501Z,92.30
2018-03-03T21:52:15.727Z,91.90
2018-03-03T21:54:45.441Z,91.40
2018-03-03T21:57:15.060Z,91.40
2018-03-03T21:59:45.115Z,92.60
2018-03-03T22:02:14.109Z,92.60
2018-03-03T22:04:43.147Z,93.60
2018-03-03T22:07:12.842Z,93.90
2018-03-03T22:09:41.726Z,93.90
2018-03-03T22:12:10.589Z,94.20
2018-03-03T22:14:39.432Z,94.10
2018-03-03T22:17:08.369Z,93.80
2018-03-03T22:19:38.269Z,94.60
2018-03-03T22:22:07.150Z,94.60
2018-03-03T22:24:36.723Z,94.90
2018-03-03T22:27:06.412Z,94.80
2018-03-03T22:29:35.308Z,94.40
2018-03-03T22:32:04.223Z,94.10
2018-03-03T22:34:34.333Z,94.20
2018-03-03T22:37:04.193Z,93.30
2018-03-03T22:39:33.072Z,93.30
2018-03-03T22:42:02.161Z,93.50
2018-03-03T22:44:31.048Z,93.40
2018-03-03T22:47:00.025Z,93.90
2018-03-03T22:49:29.050Z,94.90
2018-03-03T22:51:58.154Z,95.60
2018-03-03T22:54:28.039Z,96.20
2018-03-03T22:56:56.901Z,96.20
2018-03-03T22:59:26.054Z,95.70
2018-03-03T23:01:55.310Z,96.10
2018-03-03T23:04:24.266Z,96.70
2018-03-03T23:06:54.082Z,96.70
2018-03-03T23:09:23.180Z,96.70
2018-03-03T23:11:52.329Z,96.30
2018-03-03T23:14:21.397Z,96.80
2018-03-03T23:16:50.597Z,97.20
2018-03-03T23:19:19.614Z,97.20
2018-03-03T23:21:49.712Z,96.20
2018-03-03T23:24:18.748Z,95.80
2018-03-03T23:26:47.582Z,96.20
2018-03-03T23:29:17.574Z,92.90
2018-03-03T23:31:46.372Z,92.90
2018-03-03T23:34:15.413Z,93.90
2018-03-03T23:36:44.342Z,93.10
2018-03-03T23:39:14.267Z,93.70
2018-03-03T23:41:43.121Z,93.70
2018-03-03T23:44:11.993Z,94.40
2018-03-03T23:46:41.628Z,93.50
2018-03-03T23:49:10.773Z,93.50
2018-03-03T23:51:39.672Z,93.70
2018-03-03T23:54:08.630Z,94.10
2018-03-03T23:56:37.545Z,94.00
2018-03-03T23:59:07.594Z,95.80
